| Date | Time | Temp. (oF) | Dew Point (oF) | Rel. Hum. (%) | Press. (in.) | Wind Dir. | Wind Speed (mph) | Hourly Rainfall (in.) |
|
|---|---|---|---|---|---|---|---|---|---|
| 1 | 03/03 | 00:00 | 35 | 28 | 76 | 29.71 | WSW | 4 | 0.00 |
| 2 | 03/02 | 23:00 | 36 | 28 | 75 | 29.71 | WNW | 9 | 0.00 |
| 3 | 03/02 | 22:00 | 37 | 30 | 76 | 29.69 | WNW | 5 | 0.00 |
| 4 | 03/02 | 21:00 | 38 | 31 | 77 | 29.69 | WNW | 5 | 0.00 |
| 5 | 03/02 | 20:00 | 39 | 32 | 77 | 29.66 | W | 8 | 0.00 |
| 6 | 03/02 | 19:00 | 40 | 32 | 74 | 29.63 | WNW | 10 | 0.00 |
| 7 | 03/02 | 18:00 | 41 | 34 | 76 | 29.60 | NW | 6 | 0.00 |
| 8 | 03/02 | 17:00 | 43 | 37 | 81 | 29.56 | W | 4 | 0.00 |
| 9 | 03/02 | 16:00 | 43 | 38 | 84 | 29.55 | WNW | 9 | 0.00 |
| 10 | 03/02 | 15:00 | 45 | 40 | 85 | 29.55 | WNW | 8 | 0.00 |
| 11 | 03/02 | 14:00 | 41 | 39 | 94 | 29.57 | WSW | 4 | 0.00 |
| 12 | 03/02 | 13:00 | 41 | 41 | 100 | 29.60 | WNW | 4 | 0.00 |
| 13 | 03/02 | 12:00 | 40 | 40 | 100 | 29.64 | W | 4 | 0.00 |
| 14 | 03/02 | 11:00 | 38 | 37 | 100 | 29.68 | NW | 3 | 0.00 |
| 15 | 03/02 | 10:00 | 36 | 36 | 100 | 29.73 | NW | 5 | 0.02 |
| 16 | 03/02 | 09:00 | 35 | 35 | 100 | 29.74 | ENE | 2 | 0.11 |
| 17 | 03/02 | 08:00 | 34 | 33 | 100 | 29.76 | W | 2 | 0.12 |
| 18 | 03/02 | 07:00 | 34 | 33 | 100 | 29.78 | NNE | 3 | 0.01 |
| 19 | 03/02 | 06:00 | 33 | 32 | 100 | 29.81 | NE | 4 | 0.00 |
| 20 | 03/02 | 05:00 | 34 | 33 | 100 | 29.86 | NNE | 3 | 0.00 |
| 21 | 03/02 | 04:00 | 34 | 33 | 100 | 29.88 | ENE | 4 | 0.00 |
| 22 | 03/02 | 03:00 | 34 | 33 | 100 | 29.93 | ESE | 1 | 0.00 |
| 23 | 03/02 | 02:00 | 34 | 33 | 100 | 29.98 | E | 4 | 0.00 |
| 24 | 03/02 | 01:00 | 33 | 32 | 100 | 30.02 | ESE | 4 | 0.00 |